createdAt,value
2022-12-23T00:01:23.211Z,53.05
2022-12-23T00:03:51.207Z,46.97
2022-12-23T00:06:20.544Z,46.42
2022-12-23T00:08:48.218Z,48.42
2022-12-23T00:11:19.834Z,53.70
2022-12-23T00:14:06.572Z,48.70
2022-12-23T00:16:37.392Z,44.70
2022-12-23T00:19:05.760Z,49.60
2022-12-23T00:21:33.856Z,51.47
2022-12-23T00:24:01.468Z,49.97
2022-12-23T00:26:29.565Z,49.88
2022-12-23T00:29:02.425Z,53.95
2022-12-23T00:31:30.428Z,42.40
2022-12-23T00:33:58.212Z,45.17
2022-12-23T00:36:30.252Z,46.40
2022-12-23T00:39:17.709Z,45.05
2022-12-23T00:42:04.547Z,49.05
2022-12-23T00:44:32.631Z,57.13
2022-12-23T00:47:00.621Z,51.30
2022-12-23T00:49:43.593Z,46.80
2022-12-23T00:52:13.714Z,45.70
2022-12-23T00:54:41.837Z,47.65
2022-12-23T00:57:09.747Z,47.42
2022-12-23T00:59:37.856Z,44.22
2022-12-23T01:02:24.430Z,48.45
2022-12-23T01:05:10.928Z,46.17
2022-12-23T01:07:38.973Z,45.38
2022-12-23T01:10:06.964Z,49.35
2022-12-23T01:12:34.911Z,48.72
2022-12-23T01:15:02.644Z,50.92
2022-12-23T01:17:30.793Z,48.20
2022-12-23T01:19:58.491Z,49.70
2022-12-23T01:22:26.521Z,52.50
2022-12-23T01:24:54.189Z,55.20
2022-12-23T01:27:22.067Z,51.80
2022-12-23T01:29:49.729Z,60.35
2022-12-23T01:32:17.735Z,49.65
2022-12-23T01:34:45.415Z,49.78
2022-12-23T01:37:13.375Z,52.58
2022-12-23T01:39:41.098Z,53.55
2022-12-23T01:42:36.114Z,51.72
2022-12-23T01:45:25.001Z,60.45
2022-12-23T01:48:12.351Z,55.63
2022-12-23T01:50:48.896Z,56.17
2022-12-23T01:53:26.365Z,54.92
2022-12-23T01:56:10.522Z,58.55
2022-12-23T01:58:44.136Z,55.97
2022-12-23T02:01:31.040Z,54.28
2022-12-23T02:04:02.954Z,54.53
2022-12-23T02:07:01.263Z,50.35
2022-12-23T02:09:34.934Z,52.60
2022-12-23T02:12:29.765Z,54.60
2022-12-23T02:15:44.337Z,55.75
2022-12-23T02:18:32.956Z,60.73
2022-12-23T02:21:03.713Z,57.50
2022-12-23T02:23:51.627Z,61.83
2022-12-23T02:26:37.373Z,55.50
2022-12-23T02:29:20.150Z,64.22
2022-12-23T02:32:08.918Z,56.40
2022-12-23T02:34:55.820Z,60.42
2022-12-23T02:37:29.893Z,65.53
2022-12-23T02:40:36.864Z,64.57
2022-12-23T02:43:24.506Z,52.63
2022-12-23T02:46:02.747Z,62.60
2022-12-23T02:48:43.225Z,65.32
2022-12-23T02:51:14.843Z,58.38
2022-12-23T02:53:49.840Z,63.22
2022-12-23T02:56:20.466Z,60.53
2022-12-23T02:59:13.125Z,64.43
2022-12-23T03:01:43.023Z,62.08
2022-12-23T03:04:11.181Z,55.97
2022-12-23T03:06:49.746Z,53.97
2022-12-23T03:09:44.215Z,59.33
2022-12-23T03:12:33.727Z,51.20
2022-12-23T03:15:28.721Z,62.35
2022-12-23T03:18:20.677Z,57.88
2022-12-23T03:21:09.235Z,59.95
2022-12-23T03:23:50.501Z,63.97
2022-12-23T03:26:31.252Z,59.95
2022-12-23T03:29:15.597Z,57.05
2022-12-23T03:31:44.391Z,57.63
2022-12-23T03:34:24.364Z,58.70
2022-12-23T03:37:00.930Z,56.88
2022-12-23T03:39:36.722Z,49.45
2022-12-23T03:42:12.229Z,48.85
2022-12-23T03:45:10.655Z,49.22
2022-12-23T03:47:44.641Z,56.22
2022-12-23T03:50:15.506Z,47.33
2022-12-23T03:53:03.223Z,47.63
2022-12-23T03:55:49.385Z,44.97
2022-12-23T03:58:43.141Z,47.53
2022-12-23T04:01:20.003Z,43.55
2022-12-23T04:04:07.013Z,49.70
2022-12-23T04:06:46.892Z,47.45
2022-12-23T04:09:21.743Z,52.60
2022-12-23T04:11:50.638Z,48.10
2022-12-23T04:14:20.232Z,50.72
2022-12-23T04:16:50.548Z,46.40
2022-12-23T04:19:18.595Z,50.58
2022-12-23T04:21:46.250Z,54.92
2022-12-23T04:24:14.152Z,48.15
2022-12-23T04:26:41.897Z,45.33
2022-12-23T04:29:09.956Z,48.97
2022-12-23T04:31:37.862Z,52.30
2022-12-23T04:34:06.090Z,45.63
2022-12-23T04:36:33.773Z,45.00
2022-12-23T04:39:01.794Z,49.75
2022-12-23T04:41:29.470Z,48.38
2022-12-23T04:43:57.406Z,47.75
2022-12-23T04:46:25.089Z,44.28
2022-12-23T04:48:52.989Z,50.85
2022-12-23T04:51:20.739Z,47.63
2022-12-23T04:53:48.645Z,47.38
2022-12-23T04:56:16.376Z,46.72
2022-12-23T04:58:44.377Z,43.78
2022-12-23T05:01:12.903Z,47.83
2022-12-23T05:03:41.180Z,45.05
2022-12-23T05:06:09.115Z,46.38
2022-12-23T05:08:37.148Z,46.78
2022-12-23T05:11:04.900Z,46.58
2022-12-23T05:13:32.857Z,46.08
2022-12-23T05:16:00.725Z,45.17
2022-12-23T05:18:28.764Z,42.88
2022-12-23T05:20:56.392Z,44.13
2022-12-23T05:23:24.354Z,43.72
2022-12-23T05:25:53.824Z,41.97
2022-12-23T05:28:22.957Z,46.17
2022-12-23T05:30:57.453Z,47.70
2022-12-23T05:33:25.501Z,46.47
2022-12-23T05:35:53.273Z,48.78
2022-12-23T05:38:21.320Z,47.97
2022-12-23T05:40:49.934Z,43.17
2022-12-23T05:43:18.577Z,44.95
2022-12-23T05:45:47.082Z,46.33
2022-12-23T05:48:15.066Z,44.40
2022-12-23T05:50:42.912Z,46.15
2022-12-23T05:53:11.015Z,42.65
2022-12-23T05:55:38.616Z,41.97
2022-12-23T05:58:06.618Z,44.08
2022-12-23T06:00:34.649Z,44.63
2022-12-23T06:03:03.148Z,41.72
2022-12-23T06:05:31.057Z,45.35
2022-12-23T06:07:58.948Z,43.40
2022-12-23T06:10:26.559Z,47.72
2022-12-23T06:12:54.511Z,46.95
2022-12-23T06:15:22.211Z,48.78
2022-12-23T06:17:50.072Z,45.80
2022-12-23T06:20:20.714Z,44.25
2022-12-23T06:22:49.044Z,44.88
2022-12-23T06:25:16.760Z,45.92
2022-12-23T06:27:44.747Z,43.95
2022-12-23T06:30:13.315Z,52.88
2022-12-23T06:32:41.311Z,42.45
2022-12-23T06:35:09.969Z,44.28
2022-12-23T06:37:38.010Z,43.47
2022-12-23T06:40:06.361Z,45.08
2022-12-23T06:42:34.532Z,42.15
2022-12-23T06:45:02.164Z,43.45
2022-12-23T06:47:30.173Z,42.22
2022-12-23T06:49:57.842Z,39.55
2022-12-23T06:52:26.117Z,46.13
2022-12-23T06:54:53.831Z,48.50
2022-12-23T06:57:22.395Z,48.55
2022-12-23T06:59:50.009Z,48.00
2022-12-23T07:02:18.172Z,42.95
2022-12-23T07:04:46.034Z,44.75
2022-12-23T07:07:13.970Z,49.58
2022-12-23T07:09:41.729Z,45.97
2022-12-23T07:12:09.768Z,49.63
2022-12-23T07:14:37.518Z,48.50
2022-12-23T07:17:05.530Z,46.60
2022-12-23T07:19:34.187Z,47.92
2022-12-23T07:22:02.196Z,51.05
2022-12-23T07:24:29.896Z,44.67
2022-12-23T07:26:58.125Z,52.22
2022-12-23T07:29:25.779Z,45.05
2022-12-23T07:31:53.822Z,46.08
2022-12-23T07:34:21.501Z,51.33
2022-12-23T07:36:49.487Z,46.88
2022-12-23T07:39:17.212Z,47.40
2022-12-23T07:41:45.175Z,49.13
2022-12-23T07:44:13.967Z,45.53
2022-12-23T07:46:42.094Z,47.72
2022-12-23T07:49:09.877Z,50.20
2022-12-23T07:51:37.782Z,47.00
2022-12-23T07:54:05.530Z,46.38
2022-12-23T07:56:33.707Z,45.45
2022-12-23T07:59:01.383Z,48.35
2022-12-23T08:01:29.412Z,44.83
2022-12-23T08:03:57.244Z,42.15
2022-12-23T08:06:25.201Z,40.88
2022-12-23T08:08:53.009Z,42.63
2022-12-23T08:11:21.008Z,44.38
2022-12-23T08:13:49.276Z,44.25
2022-12-23T08:16:17.252Z,42.97
2022-12-23T08:18:45.306Z,45.10
2022-12-23T08:21:16.950Z,43.83
2022-12-23T08:23:47.080Z,42.15
2022-12-23T08:26:21.466Z,46.22
2022-12-23T08:31:23.929Z,42.72
2022-12-23T08:33:54.866Z,41.70
2022-12-23T08:36:26.187Z,48.17
2022-12-23T08:38:55.981Z,42.60
2022-12-23T08:41:30.681Z,44.53
2022-12-23T08:43:58.713Z,42.85
2022-12-23T08:46:27.688Z,39.58
2022-12-23T08:48:55.949Z,40.92
2022-12-23T08:51:26.201Z,41.63
2022-12-23T08:54:00.973Z,41.95
2022-12-23T08:56:35.838Z,40.67
2022-12-23T09:01:34.405Z,43.08
2022-12-23T09:04:06.883Z,40.13
2022-12-23T09:06:38.461Z,39.92
2022-12-23T09:09:07.306Z,44.22
2022-12-23T09:11:35.760Z,41.00
2022-12-23T09:14:04.659Z,41.95
2022-12-23T09:16:32.809Z,41.70
2022-12-23T09:19:00.722Z,40.47
2022-12-23T09:21:29.402Z,41.80
2022-12-23T09:23:57.265Z,41.92
2022-12-23T09:26:28.065Z,38.38
2022-12-23T09:28:56.609Z,40.70
2022-12-23T09:31:30.512Z,40.35
2022-12-23T09:34:00.233Z,40.78
2022-12-23T09:36:29.790Z,41.67
2022-12-23T09:38:58.638Z,39.20
2022-12-23T09:41:42.895Z,43.03
2022-12-23T09:44:30.695Z,39.03
2022-12-23T09:47:05.693Z,41.10
2022-12-23T09:49:34.424Z,42.35
2022-12-23T09:52:05.173Z,44.67
2022-12-23T09:54:46.537Z,39.28
2022-12-23T09:57:40.629Z,40.47
2022-12-23T10:00:13.918Z,41.05
2022-12-23T10:03:02.359Z,42.80
2022-12-23T10:05:49.656Z,43.03
2022-12-23T10:08:35.280Z,42.22
2022-12-23T10:11:05.326Z,39.58
2022-12-23T10:13:38.347Z,42.67
2022-12-23T10:16:23.311Z,44.63
2022-12-23T10:19:13.317Z,40.00
2022-12-23T10:21:47.950Z,45.17
2022-12-23T10:24:41.346Z,44.72
2022-12-23T10:27:30.418Z,43.75
2022-12-23T10:30:33.748Z,45.78
2022-12-23T10:33:16.371Z,49.97
2022-12-23T10:36:07.115Z,48.58
2022-12-23T10:38:52.255Z,46.67
2022-12-23T10:41:57.397Z,46.95
2022-12-23T10:44:30.824Z,47.63
2022-12-23T10:47:17.587Z,48.40
2022-12-23T10:50:06.928Z,48.03
2022-12-23T10:52:39.445Z,54.70
2022-12-23T10:55:14.519Z,48.05
2022-12-23T10:57:42.580Z,46.30
2022-12-23T11:00:23.219Z,52.83
2022-12-23T11:03:15.352Z,50.75
2022-12-23T11:05:44.745Z,56.88
2022-12-23T11:08:13.192Z,48.97
2022-12-23T11:10:41.194Z,45.35
2022-12-23T11:13:09.344Z,48.65
2022-12-23T11:15:41.557Z,46.80
2022-12-23T11:18:12.314Z,44.72
2022-12-23T11:20:45.991Z,53.05
2022-12-23T11:26:05.075Z,52.22
2022-12-23T11:28:36.286Z,57.50
2022-12-23T11:31:08.798Z,54.38
2022-12-23T11:33:40.254Z,51.60
2022-12-23T11:36:26.147Z,51.00
2022-12-23T11:39:12.619Z,49.97
2022-12-23T11:41:43.208Z,48.05
2022-12-23T11:44:18.993Z,46.60
2022-12-23T11:46:47.079Z,50.00
2022-12-23T11:49:17.950Z,46.03
2022-12-23T11:52:13.431Z,51.58
2022-12-23T11:54:41.699Z,50.20
2022-12-23T11:57:18.968Z,45.55
2022-12-23T11:59:49.985Z,45.92
2022-12-23T12:02:43.177Z,44.38
2022-12-23T12:05:23.336Z,46.40
2022-12-23T12:07:52.135Z,50.47
2022-12-23T12:10:25.804Z,43.03
2022-12-23T12:12:58.263Z,45.40
2022-12-23T12:16:09.309Z,48.65
2022-12-23T12:18:40.010Z,45.22
2022-12-23T12:21:15.196Z,44.50
2022-12-23T12:23:46.145Z,46.75
2022-12-23T12:26:21.207Z,44.55
2022-12-23T12:28:56.779Z,46.95
2022-12-23T12:31:48.409Z,48.47
2022-12-23T12:34:44.170Z,43.92
2022-12-23T12:37:17.727Z,46.90
2022-12-23T12:40:06.614Z,47.58
2022-12-23T12:42:42.582Z,46.78
2022-12-23T12:45:47.821Z,47.70
2022-12-23T12:49:01.677Z,45.70
2022-12-23T12:51:50.368Z,48.13
2022-12-23T12:54:44.192Z,49.35
2022-12-23T12:57:20.745Z,49.95
2022-12-23T12:59:51.465Z,48.20
2022-12-23T13:02:35.848Z,44.25
2022-12-23T13:05:31.119Z,49.22
2022-12-23T13:08:20.196Z,47.70
2022-12-23T13:11:10.882Z,50.58
2022-12-23T13:14:01.572Z,50.30
2022-12-23T13:16:53.199Z,50.85
2022-12-23T13:19:42.087Z,50.97
2022-12-23T13:22:33.973Z,49.42
2022-12-23T13:25:18.498Z,55.17
2022-12-23T13:28:27.035Z,63.13
2022-12-23T13:31:07.459Z,52.17
2022-12-23T13:33:47.949Z,57.17
2022-12-23T13:36:39.713Z,58.47
2022-12-23T13:39:19.852Z,59.78
2022-12-23T13:41:58.500Z,55.72
2022-12-23T13:44:33.089Z,61.28
2022-12-23T13:47:29.109Z,62.17
2022-12-23T13:50:11.729Z,56.05
2022-12-23T13:53:30.262Z,56.28
2022-12-23T13:56:28.819Z,62.22
2022-12-23T13:58:57.369Z,60.83
2022-12-23T14:01:36.284Z,60.75
2022-12-23T14:04:36.606Z,59.50
2022-12-23T14:07:06.522Z,62.53
2022-12-23T14:09:37.137Z,59.40
2022-12-23T14:12:18.581Z,57.13
2022-12-23T14:15:17.602Z,56.75
2022-12-23T14:17:51.981Z,60.85
2022-12-23T14:23:23.672Z,61.38
2022-12-23T14:25:54.875Z,64.80
2022-12-23T14:28:57.566Z,60.38
2022-12-23T14:31:44.857Z,62.20
2022-12-23T14:34:18.718Z,63.47
2022-12-23T14:37:28.267Z,59.78
2022-12-23T14:39:59.453Z,61.80
2022-12-23T14:42:42.442Z,64.40
2022-12-23T14:45:41.532Z,61.10
2022-12-23T14:48:34.275Z,69.35
2022-12-23T14:51:20.244Z,62.55
2022-12-23T14:53:54.159Z,65.10
2022-12-23T14:56:24.285Z,64.22
2022-12-23T14:58:52.161Z,62.60
2022-12-23T15:01:40.912Z,63.03
2022-12-23T15:04:24.660Z,63.72
2022-12-23T15:07:06.185Z,60.53
2022-12-23T15:09:45.271Z,58.67
2022-12-23T15:12:19.332Z,65.55
2022-12-23T15:14:56.553Z,60.60
2022-12-23T15:17:33.717Z,61.80
2022-12-23T15:20:25.649Z,59.78
2022-12-23T15:22:53.631Z,58.60
2022-12-23T15:25:30.700Z,56.25
2022-12-23T15:28:02.252Z,57.95
2022-12-23T15:30:37.174Z,56.88
2022-12-23T15:33:34.748Z,58.00
2022-12-23T15:35:58.206Z,60.70
2022-12-23T15:38:30.390Z,51.83
2022-12-23T15:41:13.407Z,54.47
2022-12-23T15:43:42.752Z,59.03
2022-12-23T15:46:29.904Z,59.30
2022-12-23T15:48:58.700Z,52.20
2022-12-23T15:52:05.954Z,56.00
2022-12-23T15:54:31.519Z,53.55
2022-12-23T15:57:01.209Z,52.75
2022-12-23T15:59:34.306Z,49.65
2022-12-23T16:05:32.908Z,48.72
2022-12-23T16:08:28.536Z,50.58
2022-12-23T16:11:14.931Z,46.42
2022-12-23T16:13:59.199Z,51.50
2022-12-23T16:16:43.349Z,46.25
2022-12-23T16:19:36.914Z,48.00
2022-12-23T16:22:35.656Z,44.08
2022-12-23T16:25:22.263Z,48.30
2022-12-23T16:27:59.931Z,53.20
2022-12-23T16:30:33.423Z,47.47
2022-12-23T16:33:21.614Z,49.00
2022-12-23T16:35:49.630Z,47.78
2022-12-23T16:38:25.649Z,45.22
2022-12-23T16:40:55.939Z,49.63
2022-12-23T16:43:25.223Z,47.58
2022-12-23T16:45:55.905Z,44.53
2022-12-23T16:48:39.282Z,49.15
2022-12-23T16:51:12.337Z,46.25
2022-12-23T16:53:40.425Z,47.67
2022-12-23T16:56:13.721Z,46.83
2022-12-23T16:58:42.776Z,45.95
2022-12-23T17:01:32.274Z,45.17
2022-12-23T17:04:00.501Z,50.45
2022-12-23T17:06:28.639Z,46.13
2022-12-23T17:08:57.080Z,46.80
2022-12-23T17:11:43.704Z,51.53
2022-12-23T17:14:20.339Z,44.35
2022-12-23T17:16:48.647Z,47.05
2022-12-23T17:19:20.485Z,47.28
2022-12-23T17:21:57.715Z,42.88
2022-12-23T17:24:27.168Z,51.53
2022-12-23T17:26:56.874Z,47.47
2022-12-23T17:29:25.304Z,52.97
2022-12-23T17:31:53.343Z,64.97
2022-12-23T17:34:24.298Z,52.42
2022-12-23T17:36:52.872Z,53.67
2022-12-23T17:39:21.952Z,62.67
2022-12-23T17:41:50.022Z,63.28
2022-12-23T17:44:18.948Z,54.78
2022-12-23T17:46:47.434Z,54.00
2022-12-23T17:49:15.550Z,48.88
2022-12-23T17:51:43.636Z,50.17
2022-12-23T17:54:23.225Z,52.00
2022-12-23T17:56:51.467Z,48.55
2022-12-23T17:59:19.485Z,49.95
2022-12-23T18:01:47.351Z,44.88
2022-12-23T18:04:15.570Z,45.22
2022-12-23T18:06:43.239Z,50.92
2022-12-23T18:09:11.264Z,50.80
2022-12-23T18:11:44.472Z,50.35
2022-12-23T18:14:21.602Z,59.10
2022-12-23T18:16:49.387Z,71.25
2022-12-23T18:19:19.272Z,59.85
2022-12-23T18:21:47.615Z,58.03
2022-12-23T18:24:15.902Z,56.70
2022-12-23T18:26:44.196Z,56.22
2022-12-23T18:29:12.192Z,51.08
2022-12-23T18:31:51.077Z,51.72
2022-12-23T18:34:20.694Z,54.00
2022-12-23T18:36:48.724Z,52.47
2022-12-23T18:39:16.928Z,79.82
2022-12-23T18:41:44.579Z,109.25
2022-12-23T18:44:21.325Z,77.38
2022-12-23T18:46:50.155Z,57.83
2022-12-23T18:49:18.316Z,49.00
2022-12-23T18:51:46.844Z,52.88
2022-12-23T18:54:16.363Z,54.90
2022-12-23T18:56:44.338Z,46.72
2022-12-23T18:59:21.366Z,51.80
2022-12-23T19:01:56.241Z,52.42
2022-12-23T19:04:24.799Z,51.10
2022-12-23T19:06:52.794Z,52.17
2022-12-23T19:09:22.734Z,58.80
2022-12-23T19:11:52.087Z,52.45
2022-12-23T19:14:20.059Z,56.60
2022-12-23T19:16:51.887Z,62.40
2022-12-23T19:19:21.741Z,62.38
2022-12-23T19:21:49.451Z,59.17
2022-12-23T19:24:17.862Z,62.95
2022-12-23T19:26:45.568Z,58.13
2022-12-23T19:29:14.301Z,55.97
2022-12-23T19:31:42.173Z,54.33
2022-12-23T19:34:14.910Z,52.97
2022-12-23T19:36:43.794Z,55.37
2022-12-23T19:39:16.495Z,50.92
2022-12-23T19:41:45.048Z,52.42
2022-12-23T19:44:13.337Z,60.33
2022-12-23T19:46:41.272Z,57.40
2022-12-23T19:49:14.076Z,60.55
2022-12-23T19:51:45.539Z,60.65
2022-12-23T19:54:13.420Z,58.20
2022-12-23T19:56:41.272Z,60.25
2022-12-23T19:59:09.504Z,63.47
2022-12-23T20:01:37.450Z,64.13
2022-12-23T20:04:05.434Z,70.85
2022-12-23T20:06:35.229Z,66.07
2022-12-23T20:09:06.538Z,72.82
2022-12-23T20:11:36.943Z,60.47
2022-12-23T20:14:05.887Z,62.50
2022-12-23T20:16:35.578Z,52.30
2022-12-23T20:19:04.615Z,55.00
2022-12-23T20:21:32.638Z,51.78
2022-12-23T20:24:01.297Z,48.60
2022-12-23T20:26:29.399Z,50.20
2022-12-23T20:28:58.584Z,48.83
2022-12-23T20:31:32.618Z,57.75
2022-12-23T20:34:01.687Z,68.63
2022-12-23T20:36:32.209Z,67.03
2022-12-23T20:39:00.461Z,60.33
2022-12-23T20:41:30.272Z,65.50
2022-12-23T20:46:47.175Z,66.05
2022-12-23T20:49:15.138Z,75.20
2022-12-23T20:51:42.864Z,70.78
2022-12-23T20:54:10.889Z,62.55
2022-12-23T20:56:38.588Z,57.45
2022-12-23T20:59:06.571Z,51.83
2022-12-23T21:01:41.818Z,56.92
2022-12-23T21:04:15.941Z,50.95
2022-12-23T21:06:44.315Z,48.95
2022-12-23T21:09:14.650Z,56.10
2022-12-23T21:11:44.727Z,58.90
2022-12-23T21:14:13.583Z,66.20
2022-12-23T21:16:41.770Z,59.70
2022-12-23T21:19:14.310Z,78.15
2022-12-23T21:21:41.971Z,102.20
2022-12-23T21:24:10.978Z,128.80
2022-12-23T21:26:39.395Z,86.20
2022-12-23T21:29:09.601Z,105.20
2022-12-23T21:31:40.060Z,95.25
2022-12-23T21:34:09.123Z,115.13
2022-12-23T21:36:38.939Z,113.03
2022-12-23T21:39:08.613Z,95.18
2022-12-23T21:41:41.260Z,82.57
2022-12-23T21:44:10.259Z,79.88
2022-12-23T21:46:38.008Z,77.72
2022-12-23T21:49:06.106Z,67.00
2022-12-23T21:51:40.219Z,58.25
2022-12-23T21:54:10.892Z,56.30
2022-12-23T21:56:39.981Z,63.67
2022-12-23T21:59:13.530Z,56.67
2022-12-23T22:01:42.631Z,58.20
2022-12-23T22:04:11.329Z,57.38
2022-12-23T22:06:43.475Z,53.85
2022-12-23T22:09:13.848Z,51.33
2022-12-23T22:11:41.889Z,61.05
2022-12-23T22:14:12.752Z,61.00
2022-12-23T22:16:40.546Z,64.93
2022-12-23T22:19:09.289Z,59.03
2022-12-23T22:21:37.384Z,72.38
2022-12-23T22:24:05.979Z,75.63
2022-12-23T22:26:34.748Z,77.03
2022-12-23T22:29:05.387Z,68.40
2022-12-23T22:31:40.620Z,72.00
2022-12-23T22:34:12.451Z,68.82
2022-12-23T22:36:40.087Z,54.72
2022-12-23T22:39:08.371Z,62.88
2022-12-23T22:41:36.771Z,71.60
2022-12-23T22:44:04.848Z,57.22
2022-12-23T22:46:33.005Z,68.03
2022-12-23T22:49:01.006Z,135.43
2022-12-23T22:51:30.511Z,118.28
2022-12-23T22:53:59.409Z,121.30
2022-12-23T22:56:27.677Z,108.53
2022-12-23T22:58:56.048Z,106.15
2022-12-23T23:01:30.473Z,76.07
2022-12-23T23:04:00.825Z,90.00
2022-12-23T23:06:34.223Z,74.30
2022-12-23T23:09:02.225Z,70.30
2022-12-23T23:11:29.943Z,77.70
2022-12-23T23:13:58.056Z,68.45
2022-12-23T23:16:25.808Z,131.57
2022-12-23T23:18:54.627Z,114.50
2022-12-23T23:21:22.656Z,104.10
2022-12-23T23:23:50.905Z,92.13
2022-12-23T23:26:19.874Z,93.50
2022-12-23T23:28:48.012Z,85.53
2022-12-23T23:34:03.719Z,81.57
2022-12-23T23:36:31.419Z,92.75
2022-12-23T23:38:59.409Z,117.93
2022-12-23T23:41:27.156Z,94.35
2022-12-23T23:43:55.037Z,106.47
2022-12-23T23:46:22.959Z,90.22
2022-12-23T23:48:50.957Z,88.90
2022-12-23T23:51:18.687Z,82.82
2022-12-23T23:53:46.582Z,82.57
2022-12-23T23:56:14.319Z,73.03
2022-12-23T23:58:42.983Z,75.93
